Time;durP1;ratioP1;P1;durP2;ratioP2;P2;SDS_P1;SDS_P2;PMS_P1;PMS_P2;Temp;Humidity;BMP_temperature;BMP_pressure;BME280_temperature;BME280_humidity;BME280_pressure;Samples;Min_cycle;Max_cycle;Signal;HPM_P1;HPM_P2
2021/12/19 00:00:57;;;;;;;30.05;19.05;;;;;;;17.75;52.98;103816.69;5009818;28;20050;-57
2021/12/19 00:08:54;;;;;;;30.95;18.48;;;;;;;17.73;53.11;103811.38;5013539;28;20379;-57
2021/12/19 00:11:23;;;;;;;33.85;18.92;;;;;;;17.72;52.75;103806.94;5009362;28;20549;-57
2021/12/19 00:13:51;;;;;;;31.33;18.92;;;;;;;17.72;52.90;103800.72;5012191;28;20053;-57
2021/12/19 00:16:18;;;;;;;33.70;19.05;;;;;;;17.70;52.84;103798.13;5010801;28;20046;-57
2021/12/19 00:18:46;;;;;;;33.88;19.40;;;;;;;17.70;53.00;103797.25;5011197;28;20513;-57
2021/12/19 00:21:15;;;;;;;32.17;19.05;;;;;;;17.68;52.87;103794.63;5010614;28;20191;-58
2021/12/19 00:23:43;;;;;;;33.42;19.88;;;;;;;17.67;53.11;103795.59;5014040;28;20145;-57
2021/12/19 00:26:10;;;;;;;30.77;18.48;;;;;;;17.67;52.62;103792.03;5011611;28;20045;-57
2021/12/19 00:28:36;;;;;;;32.72;19.40;;;;;;;17.67;53.13;103792.91;5005959;28;20054;-57
2021/12/19 00:31:04;;;;;;;30.50;18.85;;;;;;;17.67;52.81;103789.34;5006335;28;20438;-57
2021/12/19 00:33:31;;;;;;;31.70;18.42;;;;;;;17.66;52.81;103782.28;5010418;28;20386;-57
2021/12/19 00:35:59;;;;;;;31.20;19.20;;;;;;;17.65;53.48;103781.41;5010112;28;20108;-57
2021/12/19 00:38:25;;;;;;;30.25;17.98;;;;;;;17.65;52.84;103778.72;5011561;28;20148;-57
2021/12/19 00:40:53;;;;;;;31.30;18.00;;;;;;;17.64;52.74;103776.97;5012339;28;20049;-58
2021/12/19 00:43:32;;;;;;;29.23;17.00;;;;;;;17.64;53.43;103776.09;5012910;28;20136;-58
2021/12/19 00:46:06;;;;;;;31.73;18.10;;;;;;;17.63;52.88;103771.69;5010388;28;20053;-56
2021/12/19 00:48:45;;;;;;;32.78;19.08;;;;;;;17.62;52.96;103778.00;5011992;28;20049;-58
2021/12/19 00:51:15;;;;;;;29.42;17.38;;;;;;;17.62;52.58;103768.16;5011744;28;20483;-58
2021/12/19 00:53:43;;;;;;;29.98;17.75;;;;;;;17.61;52.80;103771.78;5011762;28;20054;-58
2021/12/19 00:56:10;;;;;;;28.27;17.00;;;;;;;17.60;52.81;103770.03;5010888;28;20076;-58
2021/12/19 00:58:37;;;;;;;38.38;16.90;;;;;;;17.62;53.09;103768.16;5012412;28;20054;-58
2021/12/19 01:01:07;;;;;;;28.88;17.55;;;;;;;17.60;53.22;103770.03;5013408;28;20072;-57
2021/12/19 01:03:35;;;;;;;28.15;17.17;;;;;;;17.59;53.11;103762.06;5012204;28;20153;-58
2021/12/19 01:06:02;;;;;;;26.75;15.52;;;;;;;17.60;52.91;103767.34;5010715;28;20049;-58
2021/12/19 01:08:29;;;;;;;28.20;17.55;;;;;;;17.58;52.90;103761.22;5010270;28;20123;-57
2021/12/19 01:10:56;;;;;;;25.65;15.77;;;;;;;17.57;53.32;103764.84;5008856;28;20137;-58
2021/12/19 01:13:22;;;;;;;25.27;15.90;;;;;;;17.57;53.18;103762.16;5007620;28;20046;-58
2021/12/19 01:15:51;;;;;;;23.67;14.80;;;;;;;17.55;53.27;103753.31;5013257;28;20046;-57
2021/12/19 01:18:17;;;;;;;25.02;15.10;;;;;;;17.55;53.36;103756.00;5009686;28;20514;-57
2021/12/19 01:20:44;;;;;;;25.67;15.82;;;;;;;17.53;53.26;103755.22;5011720;28;20133;-58
2021/12/19 01:23:12;;;;;;;25.08;15.52;;;;;;;17.54;53.38;103750.72;5012951;28;20077;-57
2021/12/19 01:25:39;;;;;;;23.65;14.73;;;;;;;17.54;53.33;103756.94;5009330;28;20391;-57
2021/12/19 01:28:06;;;;;;;25.15;15.60;;;;;;;17.52;53.10;103751.66;5008294;28;21501;-58
2021/12/19 01:30:33;;;;;;;26.38;15.68;;;;;;;17.53;53.27;103757.91;5010290;28;20777;-57
2021/12/19 01:32:59;;;;;;;23.35;14.52;;;;;;;17.51;53.29;103751.72;5009285;28;20049;-58
2021/12/19 01:35:26;;;;;;;24.63;14.75;;;;;;;17.51;52.97;103751.72;5011230;28;20056;-58
2021/12/19 01:37:53;;;;;;;22.08;14.07;;;;;;;17.50;53.46;103744.66;5007899;28;20056;-58
2021/12/19 01:40:22;;;;;;;22.27;13.25;;;;;;;17.50;53.29;103748.19;5005153;28;20449;-58
2021/12/19 01:42:52;;;;;;;24.23;14.30;;;;;;;17.49;52.83;103746.47;5003027;28;20357;-57
2021/12/19 01:45:33;;;;;;;21.50;13.48;;;;;;;17.50;53.31;103742.81;5009613;28;20097;-57
2021/12/19 01:48:03;;;;;;;23.85;14.13;;;;;;;17.50;53.08;103744.66;5012037;28;20048;-58
2021/12/19 01:50:31;;;;;;;22.95;13.48;;;;;;;17.48;52.86;103742.03;5011949;28;20049;-58
2021/12/19 01:52:59;;;;;;;20.55;12.43;;;;;;;17.48;53.03;103742.03;5011308;28;20381;-58
2021/12/19 01:55:26;;;;;;;20.23;12.43;;;;;;;17.47;53.25;103742.97;5011542;28;20077;-57
2021/12/19 01:57:53;;;;;;;21.08;12.60;;;;;;;17.48;53.10;103741.16;5012708;28;20128;-57
2021/12/19 02:00:27;;;;;;;19.98;12.98;;;;;;;17.47;53.30;103742.97;5010518;28;20761;-57
2021/12/19 02:02:55;;;;;;;18.17;11.82;;;;;;;17.47;53.26;103737.63;5011336;28;20713;-58
2021/12/19 02:05:24;;;;;;;20.40;12.60;;;;;;;17.46;53.15;103732.34;5012893;28;20057;-58
2021/12/19 02:07:52;;;;;;;19.67;12.13;;;;;;;17.45;53.10;103727.94;5010819;28;20052;-57
2021/12/19 02:10:20;;;;;;;19.45;12.32;;;;;;;17.46;53.24;103726.97;5011818;28;20045;-58
2021/12/19 02:12:49;;;;;;;19.58;11.98;;;;;;;17.44;53.36;103721.69;5007916;28;20376;-57
2021/12/19 02:15:19;;;;;;;17.80;11.10;;;;;;;17.45;53.12;103720.75;5012089;28;20128;-57
2021/12/19 02:17:47;;;;;;;20.27;11.95;;;;;;;17.44;53.17;103720.81;5012500;28;20042;-57
2021/12/19 02:20:15;;;;;;;17.13;11.20;;;;;;;17.44;53.52;103721.69;5016594;28;20085;-58
2021/12/19 02:22:43;;;;;;;18.17;11.40;;;;;;;17.43;53.35;103714.59;5014015;28;20049;-58
2021/12/19 02:25:10;;;;;;;17.90;11.05;;;;;;;17.43;53.54;103719.94;5012288;28;20057;-58
2021/12/19 02:27:38;;;;;;;16.45;10.55;;;;;;;17.42;53.66;103712.88;5013742;28;20068;-59
2021/12/19 02:30:07;;;;;;;17.75;10.77;;;;;;;17.42;53.39;103704.81;5013460;28;20528;-59
2021/12/19 02:32:36;;;;;;;16.90;10.50;;;;;;;17.42;53.62;103702.13;5013009;28;20405;-58
2021/12/19 02:35:07;;;;;;;16.85;10.52;;;;;;;17.41;53.17;103692.38;5016970;28;20143;-58
2021/12/19 02:48:27;;;;;;;14.40;8.95;;;;;;;17.40;53.12;103684.38;5010989;28;20041;-58
2021/12/19 02:50:55;;;;;;;15.38;9.27;;;;;;;17.38;53.50;103679.13;5009673;28;20057;-59
2021/12/19 02:53:36;;;;;;;13.40;8.90;;;;;;;17.37;53.64;103672.03;5008660;28;20060;-58
2021/12/19 02:56:05;;;;;;;13.60;8.75;;;;;;;17.37;53.01;103671.16;5009256;28;20104;-58
2021/12/19 02:58:34;;;;;;;15.63;9.70;;;;;;;17.37;53.23;103663.97;5011244;28;20049;-58
2021/12/19 03:01:04;;;;;;;14.27;9.10;;;;;;;17.37;53.18;103660.44;5016574;28;20342;-58
2021/12/19 03:03:30;;;;;;;14.77;9.05;;;;;;;17.37;52.76;103649.72;5011977;28;20052;-58
2021/12/19 03:05:57;;;;;;;14.35;8.73;;;;;;;17.37;53.18;103650.56;5013140;28;20079;-58
2021/12/19 03:08:24;;;;;;;14.02;8.68;;;;;;;17.37;53.24;103644.34;5013187;28;20624;-58
2021/12/19 03:19:09;;;;;;;12.27;7.90;;;;;;;17.37;53.37;103639.00;5012727;28;20117;-58
2021/12/19 03:21:35;;;;;;;11.85;7.65;;;;;;;17.36;54.02;103645.28;5013862;28;20164;-58
2021/12/19 03:24:03;;;;;;;11.70;7.20;;;;;;;17.34;53.26;103636.47;5012228;28;20059;-58
2021/12/19 03:26:30;;;;;;;13.45;8.15;;;;;;;17.35;53.01;103639.06;5009124;28;20136;-58
2021/12/19 03:28:56;;;;;;;10.43;7.38;;;;;;;17.35;53.28;103630.16;5013075;28;20172;-58
2021/12/19 03:31:23;;;;;;;11.68;7.28;;;;;;;17.34;53.42;103637.31;5010793;28;20140;-56
2021/12/19 03:33:49;;;;;;;11.48;7.05;;;;;;;17.34;53.41;103625.75;5012910;28;20042;-56
2021/12/19 03:36:16;;;;;;;11.13;7.65;;;;;;;17.34;53.21;103633.78;5012479;28;20058;-57
2021/12/19 03:38:44;;;;;;;11.45;7.45;;;;;;;17.32;53.25;103624.94;5013659;28;20046;-57
2021/12/19 03:41:22;;;;;;;11.27;6.88;;;;;;;17.33;53.43;103627.56;5008883;28;20606;-58
2021/12/19 03:43:49;;;;;;;10.63;7.13;;;;;;;17.32;53.00;103619.56;5016929;28;20057;-57
2021/12/19 03:46:16;;;;;;;10.52;6.65;;;;;;;17.32;53.46;103612.41;5013985;28;20112;-58
2021/12/19 03:48:43;;;;;;;10.27;6.60;;;;;;;17.33;53.35;103610.63;5012573;28;20045;-57
2021/12/19 03:51:10;;;;;;;11.02;6.75;;;;;;;17.32;53.46;103611.53;5012565;28;20058;-57
2021/12/19 03:53:37;;;;;;;11.40;6.57;;;;;;;17.32;52.90;103604.34;5014476;28;20062;-58
2021/12/19 03:56:03;;;;;;;10.57;6.57;;;;;;;17.32;53.40;103600.81;5010569;28;20429;-57
2021/12/19 03:58:30;;;;;;;10.90;6.72;;;;;;;17.31;53.59;103599.09;5012139;28;20050;-58
2021/12/19 04:01:00;;;;;;;8.88;5.80;;;;;;;17.31;53.48;103601.78;5013671;28;20483;-58
2021/12/19 04:03:28;;;;;;;10.32;7.13;;;;;;;17.31;53.02;103591.03;5006508;28;20052;-58
2021/12/19 04:05:55;;;;;;;8.93;5.85;;;;;;;17.30;52.85;103590.19;5006004;28;20046;-57
2021/12/19 04:08:22;;;;;;;9.40;6.22;;;;;;;17.30;53.59;103592.88;5010571;28;20125;-58
2021/12/19 04:10:51;;;;;;;9.55;5.82;;;;;;;17.29;53.14;103580.41;5009768;28;20488;-57
2021/12/19 04:13:18;;;;;;;8.23;5.72;;;;;;;17.29;53.62;103577.75;5009238;28;20065;-59
2021/12/19 04:15:47;;;;;;;9.35;5.78;;;;;;;17.28;53.44;103575.97;5011927;28;20049;-58
2021/12/19 04:18:14;;;;;;;9.23;5.78;;;;;;;17.30;53.54;103566.06;5014187;28;20441;-58
2021/12/19 04:20:41;;;;;;;8.63;5.80;;;;;;;17.27;53.49;103563.53;5009371;28;20054;-57
2021/12/19 04:23:07;;;;;;;6.97;4.85;;;;;;;17.26;53.49;103562.66;5012394;28;20132;-56
2021/12/19 04:25:34;;;;;;;9.35;5.78;;;;;;;17.27;53.69;103561.72;5011696;28;20357;-58
2021/12/19 04:28:00;;;;;;;6.63;4.40;;;;;;;17.27;53.11;103567.06;5012146;28;20630;-57
2021/12/19 04:30:28;;;;;;;8.13;5.50;;;;;;;17.27;53.28;103556.34;5012956;28;20141;-57
2021/12/19 04:33:01;;;;;;;7.22;4.95;;;;;;;17.28;53.65;103554.53;5014823;28;20141;-57
2021/12/19 04:35:31;;;;;;;7.70;5.20;;;;;;;17.26;53.47;103557.31;5014430;28;20053;-57
2021/12/19 05:02:12;;;;;;;6.97;4.30;;;;;;;17.25;53.78;103552.03;5012121;28;20094;-57
2021/12/19 05:15:32;;;;;;;5.90;4.03;;;;;;;17.22;53.72;103545.03;5005780;28;20058;-56
2021/12/19 05:18:04;;;;;;;5.43;3.83;;;;;;;17.22;53.63;103545.03;5012184;28;20109;-56
2021/12/19 05:20:32;;;;;;;6.00;4.28;;;;;;;17.22;53.75;103549.53;5014365;28;20054;-57
2021/12/19 05:23:19;;;;;;;6.53;4.07;;;;;;;17.22;53.83;103545.03;5010952;28;20080;-57
2021/12/19 05:25:45;;;;;;;5.97;3.65;;;;;;;17.21;53.32;103543.31;5009940;28;20271;-57
2021/12/19 05:28:12;;;;;;;5.28;3.47;;;;;;;17.21;53.98;103543.31;5012710;28;20053;-57
2021/12/19 05:30:38;;;;;;;6.80;4.05;;;;;;;17.21;53.27;103543.31;5009355;28;20345;-56
2021/12/19 05:33:06;;;;;;;4.03;2.90;;;;;;;17.20;53.69;103538.88;5010357;28;20144;-56
2021/12/19 05:46:38;;;;;;;5.32;3.40;;;;;;;17.20;53.99;103530.81;5008508;28;20174;-57
2021/12/19 05:49:06;;;;;;;4.43;2.78;;;;;;;17.19;53.45;103525.56;5015024;28;20055;-57
2021/12/19 05:51:34;;;;;;;5.63;3.95;;;;;;;17.19;53.95;103530.91;5013136;28;20065;-57
2021/12/19 05:54:00;;;;;;;4.60;3.13;;;;;;;17.19;53.46;103529.09;5015620;28;20441;-57
2021/12/19 05:56:27;;;;;;;4.53;3.00;;;;;;;17.17;53.83;103525.66;5012784;28;20056;-57
2021/12/19 05:58:55;;;;;;;5.03;2.80;;;;;;;17.19;53.55;103522.88;5015020;28;20038;-57
2021/12/19 06:01:22;;;;;;;4.93;3.15;;;;;;;17.17;53.86;103522.97;5016167;28;20513;-57
2021/12/19 06:03:49;;;;;;;4.22;2.80;;;;;;;17.18;54.03;103527.38;5014086;28;20231;-57
2021/12/19 06:06:15;;;;;;;4.03;2.70;;;;;;;17.17;53.68;103522.97;5013594;28;20057;-57
2021/12/19 06:08:42;;;;;;;4.95;3.03;;;;;;;17.17;53.32;103520.28;5012507;28;20054;-57
2021/12/19 06:11:10;;;;;;;5.05;3.03;;;;;;;17.18;53.82;103518.47;5014583;28;20098;-56
2021/12/19 06:13:38;;;;;;;4.68;3.00;;;;;;;17.17;53.03;103525.66;5015898;28;20096;-56
2021/12/19 06:16:07;;;;;;;4.03;2.65;;;;;;;17.17;54.20;103527.47;5012039;28;20450;-56
2021/12/19 06:18:33;;;;;;;4.18;2.60;;;;;;;17.17;53.28;103514.06;5015312;28;20052;-56
2021/12/19 06:21:00;;;;;;;5.38;2.75;;;;;;;17.16;53.57;103513.19;5015624;28;20049;-57
2021/12/19 06:23:27;;;;;;;4.15;2.67;;;;;;;17.16;54.07;103510.50;5007323;28;20128;-56
2021/12/19 06:25:54;;;;;;;3.10;2.33;;;;;;;17.15;53.74;103511.44;5006771;28;20054;-57
2021/12/19 06:28:21;;;;;;;4.25;2.90;;;;;;;17.15;53.71;103513.28;5010016;28;20044;-58
2021/12/19 06:30:48;;;;;;;3.60;2.55;;;;;;;17.15;53.83;103511.44;5015756;28;20052;-57
2021/12/19 06:33:15;;;;;;;3.17;2.53;;;;;;;17.15;53.73;103505.22;5006278;28;20446;-57
2021/12/19 06:35:42;;;;;;;4.50;2.90;;;;;;;17.17;53.56;103516.75;5007005;28;20049;-57
2021/12/19 06:38:09;;;;;;;3.28;2.40;;;;;;;17.20;53.61;103506.69;5014643;28;20485;-57
2021/12/19 06:40:36;;;;;;;3.92;2.50;;;;;;;17.26;53.54;103508.19;5015687;28;20128;-57
2021/12/19 06:43:02;;;;;;;2.97;2.35;;;;;;;17.35;53.75;103510.38;5013678;28;20054;-58
2021/12/19 06:45:29;;;;;;;5.85;2.75;;;;;;;17.43;53.28;103509.94;5018170;28;20059;-58
2021/12/19 06:47:56;;;;;;;4.35;2.22;;;;;;;17.54;53.69;103512.06;5012484;28;20148;-57
2021/12/19 06:50:24;;;;;;;3.65;2.30;;;;;;;17.62;53.32;103499.94;5015475;28;20058;-58
2021/12/19 06:52:51;;;;;;;3.22;2.08;;;;;;;17.72;52.97;103509.19;5014789;28;20049;-56
2021/12/19 06:55:18;;;;;;;3.03;2.58;;;;;;;17.81;52.89;103497.13;5013990;28;20463;-57
2021/12/19 06:57:45;;;;;;;3.38;2.40;;;;;;;17.91;53.13;103495.63;5010671;28;20049;-56
2021/12/19 07:00:16;;;;;;;2.92;2.20;;;;;;;17.99;52.97;103504.09;5012386;28;20485;-56
2021/12/19 07:02:43;;;;;;;3.20;1.90;;;;;;;18.07;52.77;103498.28;5011895;28;20141;-57
2021/12/19 07:05:10;;;;;;;2.47;2.05;;;;;;;18.15;52.80;103492.47;5010564;28;20485;-56
2021/12/19 07:07:37;;;;;;;5.32;2.40;;;;;;;18.21;52.54;103497.47;5014124;28;20056;-57
2021/12/19 07:10:06;;;;;;;2.75;2.15;;;;;;;18.27;52.66;103493.59;5012523;28;20100;-57
2021/12/19 07:12:34;;;;;;;3.30;2.10;;;;;;;18.31;52.53;103490.63;5011409;28;20568;-57
2021/12/19 07:15:01;;;;;;;3.40;2.10;;;;;;;18.36;52.56;103482.28;5012106;28;20092;-57
2021/12/19 07:17:27;;;;;;;3.78;2.00;;;;;;;18.39;52.41;103487.47;5008399;28;20045;-57
2021/12/19 07:19:56;;;;;;;2.70;2.10;;;;;;;18.41;51.81;103490.94;5009593;28;20042;-58
2021/12/19 07:22:22;;;;;;;3.30;1.88;;;;;;;18.43;51.71;103480.97;5012452;28;20049;-58
2021/12/19 07:24:49;;;;;;;2.88;1.80;;;;;;;18.44;51.60;103490.75;5014879;28;20412;-57
2021/12/19 07:27:16;;;;;;;2.58;1.85;;;;;;;18.44;51.68;103477.31;5012902;28;20052;-58
2021/12/19 07:29:42;;;;;;;3.30;1.90;;;;;;;18.42;51.70;103477.44;5012678;28;20042;-58
2021/12/19 07:32:11;;;;;;;2.63;1.80;;;;;;;18.42;51.93;103472.06;5011282;28;20053;-58
2021/12/19 07:34:38;;;;;;;2.42;1.67;;;;;;;18.40;52.13;103473.09;5006692;28;20057;-57
2021/12/19 07:37:05;;;;;;;2.95;1.88;;;;;;;18.37;51.78;103478.63;5008974;28;20412;-58
2021/12/19 07:42:04;;;;;;;2.63;1.83;;;;;;;18.33;51.63;103477.09;5013718;28;20051;-57
2021/12/19 07:44:31;;;;;;;3.15;1.63;;;;;;;18.31;51.69;103473.66;5015371;28;20474;-57
2021/12/19 07:46:57;;;;;;;2.65;1.70;;;;;;;18.29;51.93;103481.81;5013694;28;20050;-57
2021/12/19 07:49:24;;;;;;;2.05;1.30;;;;;;;18.25;51.74;103481.13;5012383;28;20042;-57
2021/12/19 07:51:51;;;;;;;2.38;1.60;;;;;;;18.23;52.35;103468.72;5011605;28;20137;-57
2021/12/19 07:54:17;;;;;;;2.65;1.70;;;;;;;18.20;51.93;103469.78;5013133;28;20476;-56
2021/12/19 07:56:44;;;;;;;2.08;1.40;;;;;;;18.17;52.16;103464.59;5005977;28;20071;-57
2021/12/19 07:59:10;;;;;;;2.25;1.60;;;;;;;18.16;52.01;103462.00;5008440;28;20394;-57
2021/12/19 08:01:37;;;;;;;3.38;2.15;;;;;;;18.14;52.42;103466.59;5010421;28;20064;-58
2021/12/19 08:04:03;;;;;;;3.92;2.35;;;;;;;18.13;52.28;103457.69;5006395;28;20058;-58
2021/12/19 08:06:31;;;;;;;4.47;2.58;;;;;;;18.10;52.31;103467.75;5006692;28;20050;-58
2021/12/19 08:09:11;;;;;;;3.78;2.60;;;;;;;18.08;52.01;103457.06;5005486;28;20053;-58
2021/12/19 08:11:42;;;;;;;5.00;3.33;;;;;;;18.07;52.38;103468.78;5002345;28;20058;-58
2021/12/19 08:14:11;;;;;;;6.53;3.72;;;;;;;18.05;52.01;103459.06;5004725;28;20157;-58
2021/12/19 08:16:40;;;;;;;8.52;4.57;;;;;;;18.03;52.27;103458.31;5005331;28;20144;-58
2021/12/19 08:19:07;;;;;;;9.23;4.80;;;;;;;18.03;52.34;103461.84;5001150;28;20056;-58
2021/12/19 08:21:34;;;;;;;8.07;5.03;;;;;;;18.02;52.13;103464.63;5006958;28;20489;-58
2021/12/19 08:24:02;;;;;;;9.60;5.22;;;;;;;17.99;52.24;103463.00;5003702;28;20054;-57
2021/12/19 08:26:30;;;;;;;7.82;4.93;;;;;;;17.98;52.39;103462.13;5002927;28;20079;-58
2021/12/19 08:29:02;;;;;;;10.43;5.65;;;;;;;17.96;52.43;103455.97;5008376;28;20732;-57
2021/12/19 08:31:28;;;;;;;9.27;4.68;;;;;;;17.94;52.32;103444.47;5008612;28;20052;-57
2021/12/19 08:33:55;;;;;;;7.45;4.82;;;;;;;17.93;52.13;103450.81;5009747;28;20141;-57
2021/12/19 08:36:22;;;;;;;9.80;6.28;;;;;;;17.91;52.31;103450.00;5012815;28;20058;-58
2021/12/19 08:38:49;;;;;;;10.07;6.03;;;;;;;17.91;52.18;103446.47;5009313;28;20136;-58
2021/12/19 08:41:15;;;;;;;11.05;6.55;;;;;;;17.89;52.44;103446.56;5000967;28;20128;-58
2021/12/19 08:43:42;;;;;;;12.88;7.03;;;;;;;17.89;51.76;103446.56;5003839;28;20057;-56
2021/12/19 08:46:11;;;;;;;10.73;6.93;;;;;;;17.87;52.50;103436.88;4999913;28;20433;-55
2021/12/19 08:48:38;;;;;;;12.48;7.22;;;;;;;17.85;52.27;103431.59;4997055;28;20477;-57
2021/12/19 08:51:05;;;;;;;13.73;7.63;;;;;;;17.85;52.51;103430.72;5001681;28;20054;-55
2021/12/19 08:53:32;;;;;;;12.55;7.68;;;;;;;17.83;52.41;103443.38;5010362;28;20141;-57
2021/12/19 08:55:59;;;;;;;12.50;7.70;;;;;;;17.83;52.36;103443.38;5003994;28;20345;-58
2021/12/19 08:58:28;;;;;;;15.82;8.63;;;;;;;17.82;52.38;103436.28;5001881;28;20132;-57
2021/12/19 09:01:01;;;;;;;16.02;9.23;;;;;;;17.79;52.56;103437.31;5004770;28;20141;-57
2021/12/19 09:03:29;;;;;;;19.52;11.20;;;;;;;17.79;52.54;103433.78;5000960;28;20132;-58
2021/12/19 09:05:57;;;;;;;19.05;10.93;;;;;;;17.78;52.24;103440.09;4999552;28;20053;-58
2021/12/19 09:08:25;;;;;;;20.42;11.35;;;;;;;17.76;52.64;103435.66;4998763;28;20757;-57
2021/12/19 09:10:52;;;;;;;21.38;12.23;;;;;;;17.75;52.71;103447.34;4999600;28;20060;-57
2021/12/19 09:13:19;;;;;;;20.88;12.88;;;;;;;17.74;52.53;103440.25;4999831;28;20060;-57
2021/12/19 09:15:46;;;;;;;23.02;13.20;;;;;;;17.74;52.57;103437.59;5006250;28;20054;-57
2021/12/19 09:18:13;;;;;;;22.85;13.40;;;;;;;17.73;52.57;103437.66;5001534;28;20136;-57
2021/12/19 09:20:39;;;;;;;22.45;12.75;;;;;;;17.71;52.63;103435.03;5002301;28;20044;-57
2021/12/19 09:23:06;;;;;;;24.50;14.50;;;;;;;17.72;52.47;103442.13;5004804;28;20430;-57
2021/12/19 09:25:35;;;;;;;23.60;13.68;;;;;;;17.71;52.44;103447.59;5000837;28;20050;-57
2021/12/19 09:28:02;;;;;;;26.15;15.48;;;;;;;17.69;52.77;103442.31;5006962;28;20104;-57
2021/12/19 09:30:28;;;;;;;27.05;15.27;;;;;;;17.69;52.75;103438.78;5005562;28;20132;-57
2021/12/19 09:32:55;;;;;;;28.30;16.17;;;;;;;17.68;52.69;103440.56;5008459;28;20054;-57
2021/12/19 09:35:22;;;;;;;26.90;15.77;;;;;;;17.67;52.49;103435.31;5003236;28;20089;-57
2021/12/19 09:37:49;;;;;;;27.77;15.85;;;;;;;17.65;53.03;103435.41;5004084;28;20132;-57
2021/12/19 09:40:22;;;;;;;28.63;16.15;;;;;;;17.65;53.04;103426.50;5005674;28;20052;-57
2021/12/19 09:43:00;;;;;;;29.23;16.45;;;;;;;17.64;52.43;103438.16;5004223;28;20054;-57
2021/12/19 09:45:28;;;;;;;29.60;17.10;;;;;;;17.64;52.73;103441.69;5004669;28;20088;-57
2021/12/19 09:47:55;;;;;;;31.88;18.38;;;;;;;17.62;52.59;103438.25;5006038;28;20065;-58
2021/12/19 09:50:21;;;;;;;31.42;18.38;;;;;;;17.62;52.78;103435.56;5004795;28;20076;-58
2021/12/19 09:52:50;;;;;;;32.15;17.55;;;;;;;17.60;52.77;103436.59;5004453;28;20049;-57
2021/12/19 09:55:21;;;;;;;32.20;18.67;;;;;;;17.59;52.40;103427.69;5005747;28;20046;-57
2021/12/19 09:57:50;;;;;;;30.65;18.27;;;;;;;17.58;52.84;103422.44;5003745;28;20122;-58
2021/12/19 10:00:17;;;;;;;31.02;18.88;;;;;;;17.59;52.42;103434.88;5005682;28;20133;-58
2021/12/19 10:02:44;;;;;;;34.55;19.65;;;;;;;17.57;52.67;103432.28;5006488;28;20657;-57
2021/12/19 10:05:19;;;;;;;33.53;19.77;;;;;;;17.55;52.64;103428.81;5005496;28;20085;-57
2021/12/19 10:07:58;;;;;;;33.50;19.15;;;;;;;17.56;52.58;103425.19;5001959;28;20058;-58
2021/12/19 10:10:42;;;;;;;33.92;19.00;;;;;;;17.55;53.13;103423.47;5004860;28;20057;-57
2021/12/19 10:13:08;;;;;;;31.95;19.52;;;;;;;17.54;53.00;103416.38;5001878;28;20050;-58
2021/12/19 10:15:39;;;;;;;31.77;19.00;;;;;;;17.53;52.57;103422.69;5004248;28;20050;-59
2021/12/19 10:18:15;;;;;;;35.90;20.27;;;;;;;17.51;52.67;103417.41;5021944;28;20049;-57
2021/12/19 10:20:44;;;;;;;31.67;18.85;;;;;;;17.51;52.82;103409.34;5000613;28;20046;-58
2021/12/19 10:23:15;;;;;;;34.47;19.33;;;;;;;17.51;52.71;103416.53;5004338;28;20141;-58
2021/12/19 10:25:43;;;;;;;35.13;19.27;;;;;;;17.50;52.78;103404.09;5003424;28;20050;-58
2021/12/19 10:28:10;;;;;;;32.78;19.10;;;;;;;17.50;52.29;103409.47;5002096;28;20069;-57
2021/12/19 10:30:43;;;;;;;31.48;18.80;;;;;;;17.49;52.81;103403.22;5002909;28;20121;-57
2021/12/19 10:33:25;;;;;;;31.52;18.80;;;;;;;17.47;52.38;103407.81;5006719;28;20514;-58
2021/12/19 10:35:54;;;;;;;35.03;20.23;;;;;;;17.47;52.35;103410.47;5001259;28;20050;-58
2021/12/19 10:38:27;;;;;;;32.55;18.98;;;;;;;17.47;53.01;103404.25;5005100;28;20509;-58
2021/12/19 10:41:09;;;;;;;32.00;19.17;;;;;;;17.46;52.79;103403.41;5003966;28;20072;-58
2021/12/19 10:43:45;;;;;;;33.55;19.50;;;;;;;17.45;52.74;103400.81;5003427;28;20490;-58
2021/12/19 10:46:13;;;;;;;32.75;19.15;;;;;;;17.45;53.11;103393.63;5003967;28;20058;-58
2021/12/19 10:48:42;;;;;;;30.40;18.63;;;;;;;17.44;52.65;103396.38;5003141;28;20329;-58
2021/12/19 10:51:17;;;;;;;32.97;19.42;;;;;;;17.43;52.83;103397.34;5002865;28;20046;-58
2021/12/19 10:53:53;;;;;;;29.92;18.05;;;;;;;17.43;52.56;103392.84;5003209;28;21089;-58
2021/12/19 10:56:27;;;;;;;32.47;19.67;;;;;;;17.42;52.61;103388.44;5000208;28;20046;-58
2021/12/19 10:58:58;;;;;;;32.95;18.45;;;;;;;17.41;52.66;103384.03;5004141;28;20056;-58
2021/12/19 11:01:44;;;;;;;30.65;18.63;;;;;;;17.41;53.04;103378.69;5001932;28;20056;-57
2021/12/19 11:04:16;;;;;;;30.45;18.58;;;;;;;17.41;52.58;103378.69;5004533;28;20157;-58
2021/12/19 11:06:47;;;;;;;32.33;18.90;;;;;;;17.42;52.81;103363.44;5005296;28;20496;-58
2021/12/19 11:09:29;;;;;;;32.50;18.08;;;;;;;17.42;52.91;103355.41;5005167;28;20419;-58
2021/12/19 11:12:00;;;;;;;30.85;17.92;;;;;;;17.41;52.78;103349.19;5000898;28;20133;-58
2021/12/19 11:14:39;;;;;;;30.23;18.77;;;;;;;17.40;52.87;103346.56;5005258;28;20137;-58
2021/12/19 11:17:21;;;;;;;31.85;18.13;;;;;;;17.40;52.84;103350.13;5007210;28;20050;-58
2021/12/19 11:19:49;;;;;;;30.58;17.77;;;;;;;17.39;52.61;103336.81;5001189;28;20530;-58
2021/12/19 11:22:23;;;;;;;28.95;17.85;;;;;;;17.37;52.77;103334.22;5002650;28;20105;-58
2021/12/19 11:24:59;;;;;;;30.27;17.45;;;;;;;17.38;52.50;103345.81;5003643;28;20269;-58
2021/12/19 11:27:28;;;;;;;28.88;16.98;;;;;;;17.38;52.98;103343.13;5000144;28;20132;-58
2021/12/19 11:29:57;;;;;;;32.47;17.75;;;;;;;17.37;52.26;103342.28;5001922;28;20119;-58
2021/12/19 11:32:48;;;;;;;32.67;19.23;;;;;;;17.37;52.81;103338.72;4998399;28;20505;-58
2021/12/19 11:35:20;;;;;;;29.45;17.50;;;;;;;17.36;52.59;103329.78;5001114;28;20050;-57
2021/12/19 11:37:54;;;;;;;28.23;16.60;;;;;;;17.35;53.09;103328.06;5002121;28;20137;-58
2021/12/19 11:40:21;;;;;;;28.55;17.05;;;;;;;17.35;52.59;103332.59;4999574;28;20810;-58
2021/12/19 11:42:49;;;;;;;32.78;18.00;;;;;;;17.34;52.85;103334.41;5004071;28;20046;-58
2021/12/19 11:45:41;;;;;;;30.75;18.20;;;;;;;17.33;52.95;103334.50;5004533;28;20045;-58
2021/12/19 11:48:23;;;;;;;29.92;17.80;;;;;;;17.33;53.13;103331.81;4997902;28;20417;-58
2021/12/19 11:50:58;;;;;;;28.30;16.30;;;;;;;17.33;53.23;103329.13;5002317;28;20046;-58
2021/12/19 11:53:33;;;;;;;28.95;17.65;;;;;;;17.32;52.65;103319.34;5002342;28;20045;-58
2021/12/19 11:56:06;;;;;;;30.90;17.60;;;;;;;17.33;52.82;103307.69;5002808;28;20125;-58
2021/12/19 11:58:48;;;;;;;30.77;17.73;;;;;;;17.29;53.00;103304.31;5000055;28;20184;-56
2021/12/19 12:01:22;;;;;;;27.17;16.50;;;;;;;17.30;52.87;103306.03;5003154;28;20046;-58
2021/12/19 12:03:51;;;;;;;29.38;17.00;;;;;;;17.31;52.94;103301.53;5003142;28;20085;-58
2021/12/19 12:06:19;;;;;;;31.15;17.13;;;;;;;17.28;52.60;103303.44;5000772;28;20086;-58
2021/12/19 12:09:04;;;;;;;28.67;16.58;;;;;;;17.27;52.75;103304.41;5003431;28;20050;-57
2021/12/19 12:11:32;;;;;;;28.13;16.20;;;;;;;17.28;52.75;103306.13;5002417;28;20125;-58
2021/12/19 12:14:21;;;;;;;25.08;14.65;;;;;;;17.26;52.99;103291.94;5005797;28;20053;-57
2021/12/19 12:16:54;;;;;;;25.80;14.80;;;;;;;17.26;52.56;103299.13;5005182;28;20050;-58
2021/12/19 12:19:45;;;;;;;25.45;15.65;;;;;;;17.25;52.53;103295.59;5002768;28;20050;-58
2021/12/19 12:22:24;;;;;;;24.63;15.02;;;;;;;17.27;53.13;103290.13;5005533;28;20046;-58
2021/12/19 12:25:18;;;;;;;25.30;15.13;;;;;;;17.25;52.48;103284.00;5001374;28;20125;-58
2021/12/19 12:27:48;;;;;;;25.10;15.30;;;;;;;17.25;52.91;103284.00;5000961;28;20509;-57
2021/12/19 12:30:23;;;;;;;26.23;15.27;;;;;;;17.24;52.71;103285.81;5002917;28;20454;-58
2021/12/19 12:32:50;;;;;;;26.88;14.82;;;;;;;17.23;52.79;103288.59;5001361;28;20042;-58
2021/12/19 12:35:18;;;;;;;24.67;14.90;;;;;;;17.23;52.77;103280.53;5001675;28;20049;-58
2021/12/19 12:37:48;;;;;;;29.05;16.70;;;;;;;17.23;53.13;103281.41;5002138;28;20132;-57